Data for 03/15/2009

Time Sea-Level Adjusted Pressure Absolute Pressure Temperature Relative Humidity Dew Point   
(mb) (inHg) (mb) (inHg) (C) (F) (%) (C) (F)
00:05 1006 29.71 835 24.66 5.2 41.3 29 -11.4 11.5
00:10 1006 29.71 835 24.66 5.2 41.4 29 -11.3 11.7
00:15 1006 29.71 835 24.66 5 41.1 30 -11.3 11.6
00:20 1006 29.71 835 24.66 5 41 30 -11.4 11.5
00:25 1006 29.71 835 24.66 5 41.1 30 -11 12.2
00:30 1006 29.71 835 24.66 4.9 40.7 31 -10.7 12.7
00:35 1006 29.71 835 24.66 4.6 40.4 33 -10.3 13.4
00:40 1006 29.71 835 24.66 4.4 39.9 37 -9.2 15.4
00:45 1006 29.71 835 24.66 4 39.1 39 -8.9 15.9
00:50 1006 29.71 835 24.66 3.6 38.4 42 -8.2 17.3
00:55 1006 29.71 835 24.66 3.3 38 43 -8.2 17.2
01:00 1006 29.71 835 24.66 3.2 37.8 43 -8.1 17.4
01:05 1006 29.71 835 24.66 3.2 37.8 44 -7.9 17.7
01:10 1006 29.71 835 24.66 3.3 37.9 44 -8 17.6
01:15 1005 29.68 835 24.66 3.3 38 44 -7.9 17.8
01:20 1005 29.68 835 24.66 3.2 37.8 45 -7.7 18.1
01:25 1005 29.68 835 24.66 3.3 37.9 44 -7.7 18.1
01:30 1005 29.68 835 24.66 3.2 37.8 45 -7.6 18.3
01:35 1005 29.68 835 24.66 3.2 37.7 46 -7.5 18.5
01:40 1005 29.68 835 24.66 3.1 37.6 46 -7.5 18.5
01:45 1005 29.68 835 24.66 3 37.5 46 -7.5 18.4
01:50 1005 29.68 835 24.66 3 37.4 45 -7.8 17.9
01:55 1005 29.68 834 24.63 3.1 37.6 44 -7.9 17.7
02:00 1005 29.68 834 24.63 3.3 38 43 -8.1 17.4
02:05 1005 29.68 834 24.63 3.5 38.2 42 -8.4 17
02:10 1005 29.68 834 24.63 3.6 38.4 44 -7.6 18.2
02:15 1005 29.68 834 24.63 3.1 37.5 45 -7.8 18
02:20 1005 29.68 834 24.63 2.9 37.3 45 -8 17.7
02:25 1005 29.68 834 24.63 3 37.4 44 -8 17.6
02:30 1005 29.68 834 24.63 2.9 37.3 42 -8.7 16.4
02:35 1005 29.68 834 24.63 3.4 38.1 42 -8.3 17
02:40 1005 29.68 834 24.63 3.5 38.2 43 -7.9 17.7
02:45 1005 29.68 834 24.63 3.4 38.1 44 -7.6 18.2
02:50 1005 29.68 834 24.63 2.9 37.2 48 -7 19.4
02:55 1005 29.68 834 24.63 2.2 35.9 51 -7 19.4
03:00 1005 29.68 834 24.63 1.9 35.4 51 -7.3 18.9
03:05 1005 29.68 834 24.63 2 35.6 49 -7.5 18.5
03:10 1005 29.68 834 24.63 1.9 35.4 50 -7.6 18.4
03:15 1005 29.68 834 24.63 1.6 34.9 53 -6.9 19.5
03:20 1005 29.68 834 24.63 1.6 35 49 -7.8 17.9
03:25 1005 29.68 834 24.63 2 35.6 48 -8 17.6
03:30 1005 29.68 834 24.63 2.3 36.1 46 -8.1 17.4
03:35 1005 29.68 834 24.63 2 35.5 53 -6.6 20
03:40 1005 29.68 834 24.63 1.7 35.1 46 -8.7 16.3
03:45 1005 29.68 834 24.63 2.2 36 46 -8.3 17
03:50 1004 29.65 834 24.63 2.4 36.3 46 -8.1 17.5
03:55 1004 29.65 834 24.63 2 35.5 51 -7.3 18.9
04:00 1004 29.65 834 24.63 1.7 35.1 49 -7.8 18
04:05 1004 29.65 834 24.63 2 35.5 47 -8.1 17.5
04:10 1004 29.65 834 24.63 2.1 35.7 51 -7.1 19.2
04:15 1004 29.65 834 24.63 1.9 35.4 50 -7.4 18.6
04:20 1004 29.65 833 24.6 1.5 34.7 54 -6.8 19.7
04:25 1004 29.65 833 24.6 1.3 34.3 52 -7.4 18.6
04:30 1004 29.65 833 24.6 1.5 34.8 52 -7.3 18.8
04:35 1004 29.65 833 24.6 1.8 35.3 49 -7.8 18
04:40 1004 29.65 833 24.6 1.6 35 53 -6.8 19.7
04:45 1004 29.65 833 24.6 1.1 34.1 54 -7.1 19.2
04:50 1004 29.65 833 24.6 1.2 34.2 47 -8.9 16
04:55 1004 29.65 833 24.6 1.8 35.3 50 -7.6 18.3
05:00 1004 29.65 833 24.6 1.8 35.2 46 -8.8 16.2
05:05 1004 29.65 833 24.6 2.2 36 47 -8.1 17.5
05:10 1004 29.65 833 24.6 2.3 36.1 46 -8.1 17.4
05:15 1004 29.65 833 24.6 2.6 36.7 46 -7.8 17.9
05:20 1004 29.65 833 24.6 2.8 37.1 45 -8 17.7
05:25 1004 29.65 833 24.6 3.4 38.1 47 -7 19.4
05:30 1004 29.65 833 24.6 3.6 38.4 44 -7.5 18.5
05:35 1004 29.65 834 24.63 3.9 39.1 43 -7.4 18.7
05:40 1004 29.65 834 24.63 4.1 39.4 44 -7 19.5
05:45 1004 29.65 834 24.63 4 39.2 45 -6.8 19.8
05:50 1004 29.65 834 24.63 3.9 39.1 46 -6.6 20.1
05:55 1004 29.65 834 24.63 4 39.2 47 -6.4 20.5
06:00 1004 29.65 834 24.63 4 39.1 48 -6.1 21
06:05 1004 29.65 834 24.63 3.9 39 47 -6.3 20.6
06:10 1004 29.65 834 24.63 4 39.1 47 -6.3 20.7
06:15 1004 29.65 834 24.63 4.1 39.3 47 -6.3 20.7
06:20 1004 29.65 834 24.63 4.1 39.3 48 -6 21.1
06:25 1004 29.65 834 24.63 3.9 39.1 48 -6.2 20.9
06:30 1004 29.65 834 24.63 4 39.1 49 -5.8 21.6
06:35 1005 29.68 834 24.63 3.9 39.1 49 -5.9 21.4
06:40 1005 29.68 834 24.63 3.9 39 50 -5.6 21.8
06:45 1005 29.68 834 24.63 3.8 38.8 50 -5.6 21.9
06:50 1005 29.68 834 24.63 3.8 38.8 50 -5.7 21.7
06:55 1005 29.68 834 24.63 3.8 38.8 51 -5.5 22.1
07:00 1005 29.68 834 24.63 3.7 38.6 51 -5.5 22.1
07:05 1005 29.68 834 24.63 3.5 38.3 52 -5.4 22.3
07:10 1005 29.68 834 24.63 3.3 37.9 53 -5.5 22.1
07:15 1005 29.68 834 24.63 3.6 38.5 48 -6.3 20.6
07:20 1005 29.68 834 24.63 4.1 39.4 46 -6.6 20.2
07:25 1005 29.68 834 24.63 4.2 39.6 48 -5.9 21.3
07:30 1005 29.68 834 24.63 4.1 39.3 47 -6.3 20.7
07:35 1005 29.68 834 24.63 4 39.3 46 -6.4 20.4
07:40 1005 29.68 834 24.63 4.1 39.4 47 -6.3 20.6
07:45 1005 29.68 834 24.63 4.1 39.4 47 -6.3 20.7
07:50 1005 29.68 834 24.63 4.1 39.4 46 -6.4 20.5
07:55 1005 29.68 834 24.63 4 39.2 45 -6.9 19.6
08:00 1005 29.68 834 24.63 4.1 39.5 45 -6.7 20
08:05 1005 29.68 834 24.63 3.8 38.9 47 -6.4 20.6
08:10 1005 29.68 834 24.63 3.4 38.2 49 -6.4 20.5
08:15 1005 29.68 834 24.63 3.2 37.8 48 -6.7 19.9
08:20 1005 29.68 834 24.63 3.3 37.9 46 -7.2 19.1
08:25 1005 29.68 834 24.63 3.6 38.4 45 -7.4 18.7
08:30 1005 29.68 834 24.63 3.6 38.4 46 -7.1 19.2
08:35 1005 29.68 834 24.63 4 39.2 42 -7.9 17.8
08:40 1005 29.68 834 24.63 4.1 39.4 42 -7.7 18.2
08:45 1005 29.68 834 24.63 4 39.2 41 -8.2 17.3
08:50 1005 29.68 834 24.63 3.9 39 41 -8.2 17.2
08:55 1005 29.68 834 24.63 4.2 39.5 39 -8.6 16.4
09:00 1005 29.68 834 24.63 4.7 40.5 39 -8.2 17.2
09:05 1005 29.68 834 24.63 5 41 39 -7.7 18.1
09:10 1005 29.68 835 24.66 5 41.1 41 -7.3 18.9
09:15 1005 29.68 835 24.66 4.6 40.3 44 -6.5 20.3
09:20 1006 29.71 835 24.66 4.1 39.3 44 -7.1 19.3
09:25 1006 29.71 835 24.66 4.7 40.5 41 -7.4 18.7
09:30 1006 29.71 835 24.66 5.5 41.8 40 -7.1 19.2
09:35 1006 29.71 835 24.66 5.7 42.3 38 -7.7 18.2
09:40 1006 29.71 835 24.66 5.9 42.6 41 -6.5 20.3
09:45 1006 29.71 835 24.66 5.5 42 41 -6.8 19.7
09:50 1006 29.71 835 24.66 5.3 41.5 41 -6.9 19.6
09:55 1006 29.71 835 24.66 5.5 41.9 41 -6.8 19.7
10:00 1006 29.71 835 24.66 5.7 42.2 40 -7 19.4
10:05 1006 29.71 835 24.66 5.7 42.3 38 -7.3 18.8
10:10 1006 29.71 835 24.66 6.1 43 40 -6.3 20.6
10:15 1006 29.71 835 24.66 6 42.8 39 -6.8 19.8
10:20 1006 29.71 835 24.66 6.1 42.9 39 -7 19.5
10:25 1006 29.71 835 24.66 6.2 43.2 38 -6.9 19.5
10:30 1006 29.71 835 24.66 6.2 43.1 38 -7.2 19.1
10:35 1006 29.71 835 24.66 6.2 43.2 38 -7.1 19.2
10:40 1006 29.71 835 24.66 6.3 43.3 36 -7.8 18
10:45 1006 29.71 835 24.66 6.5 43.7 36 -7.6 18.4
10:50 1006 29.71 835 24.66 6.7 44.1 34 -7.9 17.8
10:55 1006 29.71 835 24.66 7 44.6 35 -7.4 18.6
11:00 1006 29.71 835 24.66 7.2 44.9 36 -7.1 19.3
11:05 1006 29.71 835 24.66 7.5 45.5 31 -8.4 17
11:10 1006 29.71 835 24.66 7.5 45.4 32 -8.3 17.1
11:15 1006 29.71 835 24.66 7.4 45.4 31 -8.4 16.8
11:20 1006 29.71 835 24.66 8.4 47 30 -8.4 16.8
11:25 1006 29.71 835 24.66 8.6 47.5 31 -7.7 18.2
11:30 1006 29.71 835 24.66 8 46.4 30 -8.5 16.8
11:35 1006 29.71 835 24.66 7.9 46.1 30 -8.7 16.4
11:40 1006 29.71 835 24.66 8.1 46.7 28 -9.1 15.6
11:45 1006 29.71 835 24.66 8.1 46.6 30 -8.5 16.7
11:50 1006 29.71 835 24.66 8.2 46.7 31 -8 17.6
11:55 1006 29.71 835 24.66 8.6 47.5 31 -7.5 18.5
12:00 1006 29.71 835 24.66 7.4 45.3 33 -7.7 18.2
12:05 1006 29.71 835 24.66 7.1 44.8 33 -7.9 17.7
12:10 1006 29.71 835 24.66 7.3 45.1 32 -8.5 16.7
12:15 1006 29.71 836 24.69 7.3 45.1 34 -7.7 18.1
12:20 1006 29.71 836 24.69 7.4 45.3 36 -6.6 20
12:25 1006 29.71 836 24.69 7.2 44.9 36 -6.8 19.7
12:30 1006 29.71 836 24.69 7.5 45.5 36 -6.8 19.8
12:35 1006 29.71 835 24.66 7.9 46.3 34 -6.9 19.6
12:40 1006 29.71 835 24.66 8.1 46.6 31 -8.2 17.3
12:45 1006 29.71 835 24.66 7.8 46 32 -8 17.5
12:50 1006 29.71 835 24.66 7.9 46.2 30 -8.4 16.8
12:55 1006 29.71 835 24.66 8.3 46.9 31 -8 17.5
13:00 1006 29.71 835 24.66 8.3 46.9 31 -7.9 17.7
13:05 1006 29.71 835 24.66 8 46.4 32 -7.7 18.1
13:10 1006 29.71 835 24.66 7.6 45.7 32 -8.1 17.4
13:15 1006 29.71 835 24.66 7.4 45.3 33 -7.7 18.2
13:20 1006 29.71 835 24.66 7.4 45.2 32 -8.1 17.4
13:25 1006 29.71 835 24.66 7.8 46.1 35 -6.8 19.8
13:30 1006 29.71 835 24.66 7.8 46.1 33 -7.3 18.8
13:35 1006 29.71 835 24.66 7.7 45.9 31 -8.2 17.2
13:40 1006 29.71 835 24.66 8 46.5 32 -7.8 18
13:45 1006 29.71 835 24.66 8.4 47.1 31 -7.8 17.9
13:50 1006 29.71 835 24.66 8 46.4 32 -7.8 17.9
13:55 1006 29.71 835 24.66 7.9 46.3 34 -6.9 19.5
14:00 1006 29.71 835 24.66 7.6 45.7 33 -7.8 17.9
14:05 1006 29.71 835 24.66 7.7 45.8 34 -7.3 18.9
14:10 1006 29.71 835 24.66 7.5 45.5 33 -7.7 18.2
14:15 1006 29.71 835 24.66 7.4 45.3 34 -7.5 18.4
14:20 1006 29.71 835 24.66 7.6 45.7 29 -9.1 15.6
14:25 1006 29.71 835 24.66 7.7 45.8 32 -7.9 17.7
14:30 1006 29.71 835 24.66 7.8 46 31 -8.2 17.2
14:35 1006 29.71 835 24.66 7.8 46 32 -7.8 18
14:40 1006 29.71 835 24.66 8.1 46.5 33 -7.3 18.8
14:45 1006 29.71 835 24.66 7.7 45.9 33 -7.7 18.2
14:50 1006 29.71 835 24.66 7.6 45.7 33 -7.7 18.2
14:55 1006 29.71 835 24.66 7.7 45.9 33 -7.5 18.4
15:00 1006 29.71 835 24.66 7.8 46.1 33 -7.4 18.6
15:05 1006 29.71 835 24.66 8.2 46.7 33 -7.2 19
15:10 1006 29.71 835 24.66 8.4 47.2 34 -6.4 20.4
15:15 1006 29.71 835 24.66 8 46.3 32 -7.6 18.3
15:20 1006 29.71 835 24.66 8.4 47.2 32 -7.4 18.6
15:25 1006 29.71 835 24.66 8.3 47 32 -7.4 18.6
15:30 1006 29.71 835 24.66 8.3 47 31 -8 17.7
15:35 1006 29.71 835 24.66 8.4 47.1 33 -7.1 19.2
15:40 1006 29.71 835 24.66 8.2 46.7 33 -7.3 18.8
15:45 1006 29.71 835 24.66 8.4 47.1 32 -7.4 18.7
15:50 1006 29.71 835 24.66 8.6 47.5 31 -7.6 18.3
15:55 1005 29.68 835 24.66 8.8 47.9 30 -7.9 17.8
16:00 1005 29.68 835 24.66 8.9 48 31 -7.3 18.8
16:05 1006 29.71 835 24.66 8.8 47.8 32 -7 19.4
16:10 1005 29.68 835 24.66 8.6 47.4 31 -7.5 18.5
16:15 1006 29.71 835 24.66 8.6 47.5 30 -7.9 17.7
16:20 1006 29.71 835 24.66 8.6 47.4 31 -7.5 18.6
16:25 1006 29.71 835 24.66 8.5 47.2 31 -7.6 18.4
16:30 1006 29.71 835 24.66 8.3 46.9 33 -7.1 19.2
16:35 1006 29.71 835 24.66 8.4 47 33 -7.1 19.1
16:40 1006 29.71 835 24.66 8.3 47 33 -7.2 19.1
16:45 1006 29.71 835 24.66 8.1 46.5 33 -7.3 18.8
16:50 1006 29.71 835 24.66 8 46.5 31 -8 17.5
16:55 1006 29.71 835 24.66 8.1 46.6 34 -6.9 19.7
17:00 1006 29.71 835 24.66 7.7 45.8 35 -7 19.4
17:05 1006 29.71 835 24.66 7.8 46 35 -6.9 19.6
17:10 1006 29.71 835 24.66 7.5 45.4 35 -6.9 19.6
17:15 1006 29.71 835 24.66 7.5 45.5 36 -6.4 20.4
17:20 1006 29.71 835 24.66 7.3 45.1 36 -6.8 19.7
17:25 1006 29.71 835 24.66 7.4 45.3 36 -6.5 20.2
17:30 1006 29.71 835 24.66 7.1 44.8 40 -5.5 22.1
17:35 1006 29.71 835 24.66 6.9 44.4 39 -6.3 20.7
17:40 1006 29.71 835 24.66 7.1 44.7 36 -7.1 19.2
17:45 1006 29.71 835 24.66 7.3 45.2 35 -7.3 18.9
17:50 1006 29.71 835 24.66 7.4 45.2 36 -6.7 20
17:55 1006 29.71 835 24.66 7.3 45.2 36 -6.8 19.8
18:00 1006 29.71 835 24.66 7.2 44.9 41 -5.1 22.8
18:05 1006 29.71 835 24.66 6.8 44.3 37 -7 19.4
18:10 1006 29.71 835 24.66 7.5 45.4 37 -6.2 20.9
18:15 1006 29.71 835 24.66 7.2 45 39 -5.9 21.4
18:20 1006 29.71 835 24.66 7.2 44.9 38 -6.2 20.8
18:25 1006 29.71 835 24.66 7 44.7 41 -5.4 22.3
18:30 1006 29.71 835 24.66 6.8 44.3 40 -6 21.2
18:35 1006 29.71 835 24.66 6.9 44.3 40 -5.8 21.6
18:40 1006 29.71 835 24.66 6.8 44.2 41 -5.6 22
18:45 1006 29.71 835 24.66 6.6 43.9 41 -5.7 21.8
18:50 1006 29.71 835 24.66 6.6 43.8 41 -5.7 21.7
18:55 1006 29.71 835 24.66 6.5 43.7 39 -6.5 20.3
19:00 1006 29.71 835 24.66 6.7 44.1 39 -6.2 20.8
19:05 1006 29.71 835 24.66 6.6 43.9 40 -6.1 20.9
19:10 1006 29.71 835 24.66 6.9 44.4 39 -6.3 20.7
19:15 1006 29.71 835 24.66 6.8 44.3 41 -5.6 22
19:20 1006 29.71 835 24.66 7 44.5 38 -6.4 20.5
19:25 1006 29.71 835 24.66 7 44.7 39 -6 21.2
19:30 1006 29.71 835 24.66 6.8 44.3 39 -6.2 20.8
19:35 1006 29.71 835 24.66 6.8 44.3 38 -6.5 20.3
19:40 1006 29.71 835 24.66 7.1 44.8 38 -6.2 20.8
19:45 1006 29.71 835 24.66 7 44.6 36 -6.9 19.6
19:50 1006 29.71 835 24.66 7.2 45 36 -6.9 19.5
19:55 1006 29.71 835 24.66 7.2 45 37 -6.4 20.5
20:00 1006 29.71 835 24.66 7.1 44.7 37 -6.7 20
20:05 1006 29.71 835 24.66 7.2 44.9 37 -6.7 20
20:10 1006 29.71 835 24.66 7.1 44.7 37 -6.6 20.1
20:15 1006 29.71 835 24.66 7.2 44.9 37 -6.6 20.1
20:20 1006 29.71 835 24.66 7 44.7 37 -6.5 20.3
20:25 1006 29.71 835 24.66 7.1 44.8 37 -6.7 19.9
20:30 1006 29.71 835 24.66 7.2 45 37 -6.4 20.5
20:35 1006 29.71 835 24.66 7 44.6 38 -6.3 20.6
20:40 1006 29.71 835 24.66 7 44.5 38 -6.4 20.6
20:45 1006 29.71 835 24.66 7.3 45.1 38 -6.1 21.1
20:50 1006 29.71 835 24.66 7.2 44.9 39 -6 21.2
20:55 1006 29.71 835 24.66 7.1 44.7 40 -5.7 21.8
21:00 1006 29.71 835 24.66 6.9 44.5 41 -5.5 22.1
21:05 1005 29.68 835 24.66 7 44.6 39 -6.1 21
21:10 1005 29.68 834 24.63 7.2 44.9 41 -5.2 22.6
21:15 1005 29.68 834 24.63 6.9 44.5 41 -5.5 22
21:20 1005 29.68 834 24.63 6.9 44.5 40 -5.7 21.8
21:25 1005 29.68 834 24.63 6.9 44.4 40 -5.6 21.8
21:30 1005 29.68 834 24.63 7 44.7 41 -5.3 22.4
21:35 1005 29.68 834 24.63 7 44.6 40 -5.6 22
21:40 1005 29.68 835 24.66 7.1 44.7 39 -6 21.3
21:45 1005 29.68 835 24.66 7.1 44.7 41 -5.4 22.3
21:50 1005 29.68 835 24.66 6.9 44.4 40 -5.7 21.8
21:55 1005 29.68 834 24.63 7.3 45.1 40 -5.6 22
22:00 1005 29.68 834 24.63 7.4 45.3 40 -5.2 22.7
22:05 1005 29.68 834 24.63 7.2 45 40 -5.4 22.3
22:10 1005 29.68 834 24.63 7.3 45.2 38 -6 21.3
22:15 1005 29.68 834 24.63 7.3 45.1 40 -5.3 22.4
22:20 1005 29.68 834 24.63 7.4 45.3 38 -6 21.3
22:25 1005 29.68 835 24.66 7.6 45.6 40 -5.2 22.6
22:30 1005 29.68 835 24.66 7.3 45.1 40 -5.3 22.4
22:35 1005 29.68 834 24.63 7.2 44.9 41 -5.1 22.8
22:40 1005 29.68 835 24.66 7.3 45.1 41 -5.1 22.8
22:45 1005 29.68 835 24.66 7.2 45 40 -5.5 22
22:50 1005 29.68 834 24.63 7.4 45.4 40 -5.2 22.7
22:55 1005 29.68 834 24.63 7.5 45.5 41 -4.9 23.2
23:00 1005 29.68 834 24.63 7.4 45.2 41 -4.9 23.2
23:05 1005 29.68 834 24.63 7.3 45.1 42 -4.8 23.4
23:10 1005 29.68 835 24.66 7.3 45.2 41 -5 23
23:15 1005 29.68 835 24.66 7.5 45.4 41 -5 23
23:20 1005 29.68 835 24.66 7.3 45.2 42 -4.8 23.4
23:25 1005 29.68 835 24.66 7.4 45.3 42 -4.6 23.7
23:30 1005 29.68 835 24.66 7.4 45.4 42 -4.6 23.7
23:35 1005 29.68 835 24.66 7.3 45.1 43 -4.5 24
23:40 1005 29.68 835 24.66 7.3 45.1 44 -4.1 24.6
23:45 1005 29.68 835 24.66 7.1 44.8 44 -4.4 24.1
23:50 1006 29.71 835 24.66 7.2 45 44 -4.1 24.6
23:55 1006 29.71 835 24.66 7.1 44.8 44 -4.2 24.4
24:00 1005 29.68 835 24.66 7.3 45.1 44 -4.3 24.2